Time;durP1;ratioP1;P1;durP2;ratioP2;P2;SDS_P1;SDS_P2;PMS_P1;PMS_P2;Temp;Humidity;BMP_temperature;BMP_pressure;BME280_temperature;BME280_humidity;BME280_pressure;Samples;Min_cycle;Max_cycle;Signal;HPM_P1;HPM_P2
2023/04/12 00:01:36;;;;;;;;;;;;;;;;;;6136154;23;20015;-84
2023/04/12 00:04:03;;;;;;;;;;;;;;;;;;6136357;23;19954;-84
2023/04/12 00:06:31;;;;;;;;;;;;;;;;;;6136303;23;19916;-85
2023/04/12 00:08:57;;;;;;;;;;;;;;;;;;6160772;23;19987;-86
2023/04/12 00:11:23;;;;;;;;;;;;;;;;;;6136755;23;19916;-86
2023/04/12 00:13:49;;;;;;;;;;;;;;;;;;6160716;23;19957;-85
2023/04/12 00:16:15;;;;;;;;;;;;;;;;;;6136287;23;19948;-86
2023/04/12 00:18:41;;;;;;;;;;;;;;;;;;6136318;23;19966;-86
2023/04/12 00:21:07;;;;;;;;;;;;;;;;;;6136207;23;20037;-85
2023/04/12 00:23:36;;;;;;;;;;;;;;;;;;6135948;23;20331;-85
2023/04/12 00:26:02;;;;;;;;;;;;;;;;;;6135887;23;19916;-83
2023/04/12 00:28:28;;;;;;;;;;;;;;;;;;6160407;23;20244;-85
2023/04/12 00:30:54;;;;;;;;;;;;;;;;;;6135972;23;19923;-85
2023/04/12 00:33:20;;;;;;;;;;;;;;;;;;6136440;23;20335;-85
2023/04/12 00:35:46;;;;;;;;;;;;;;;;;;6136048;23;19920;-85
2023/04/12 00:38:14;;;;;;;;;;;;;;;;;;6136008;23;19916;-85
2023/04/12 00:40:40;;;;;;;;;;;;;;;;;;6135186;23;20387;-85
2023/04/12 00:43:06;;;;;;;;;;;;;;;;;;6161072;23;19963;-84
2023/04/12 00:45:32;;;;;;;;;;;;;;;;;;6136076;23;20303;-84
2023/04/12 00:47:58;;;;;;;;;;;;;;;;;;6136051;23;19948;-84
2023/04/12 00:50:24;;;;;;;;;;;;;;;;;;6160379;23;19917;-86
2023/04/12 00:52:50;;;;;;;;;;;;;;;;;;6135660;23;20255;-85
2023/04/12 00:55:16;;;;;;;;;;;;;;;;;;6136353;23;19920;-86
2023/04/12 00:57:42;;;;;;;;;;;;;;;;;;6160460;23;20438;-84
2023/04/12 01:00:12;;;;;;;;;;;;;;;;;;6160533;23;19917;-85
2023/04/12 01:02:38;;;;;;;;;;;;;;;;;;6135978;23;19927;-85
2023/04/12 01:05:04;;;;;;;;;;;;;;;;;;6136747;23;20248;-86
2023/04/12 01:07:30;;;;;;;;;;;;;;;;;;6135798;23;19995;-84
2023/04/12 01:09:56;;;;;;;;;;;;;;;;;;6136103;23;19920;-86
2023/04/12 01:12:22;;;;;;;;;;;;;;;;;;6135807;23;19923;-85
2023/04/12 01:14:48;;;;;;;;;;;;;;;;;;6135951;23;20353;-84
2023/04/12 01:17:16;;;;;;;;;;;;;;;;;;6135641;23;19916;-85
2023/04/12 01:19:44;;;;;;;;;;;;;;;;;;6134621;23;19982;-86
2023/04/12 01:22:10;;;;;;;;;;;;;;;;;;6135268;23;19978;-85
2023/04/12 01:24:36;;;;;;;;;;;;;;;;;;6135458;23;20386;-84
2023/04/12 01:27:02;;;;;;;;;;;;;;;;;;6135276;23;19916;-86
2023/04/12 01:29:28;;;;;;;;;;;;;;;;;;6135282;23;20326;-86
2023/04/12 01:31:54;;;;;;;;;;;;;;;;;;6159764;23;19964;-86
2023/04/12 01:34:20;;;;;;;;;;;;;;;;;;6135901;23;19991;-85
2023/04/12 01:36:46;;;;;;;;;;;;;;;;;;6160332;23;19923;-87
2023/04/12 01:39:12;;;;;;;;;;;;;;;;;;6135649;23;20307;-86
2023/04/12 01:41:40;;;;;;;;;;;;;;;;;;6160015;23;19955;-85
2023/04/12 01:44:06;;;;;;;;;;;;;;;;;;6135672;23;19921;-86
2023/04/12 01:46:33;;;;;;;;;;;;;;;;;;6135095;23;19995;-84
2023/04/12 01:48:59;;;;;;;;;;;;;;;;;;6136038;23;19916;-86
2023/04/12 01:51:26;;;;;;;;;;;;;;;;;;6159831;23;20339;-87
2023/04/12 01:53:52;;;;;;;;;;;;;;;;;;6135435;23;19974;-85
2023/04/12 01:56:19;;;;;;;;;;;;;;;;;;6135022;23;19921;-84
2023/04/12 01:58:44;;;;;;;;;;;;;;;;;;6135240;23;19922;-86
2023/04/12 02:01:11;;;;;;;;;;;;;;;;;;6134422;23;19978;-86
2023/04/12 02:03:37;;;;;;;;;;;;;;;;;;6134983;23;20239;-84
2023/04/12 02:06:03;;;;;;;;;;;;;;;;;;6135439;23;20354;-86
2023/04/12 02:08:29;;;;;;;;;;;;;;;;;;6159570;23;19991;-84
2023/04/12 02:10:55;;;;;;;;;;;;;;;;;;6159588;23;19991;-85
2023/04/12 02:13:21;;;;;;;;;;;;;;;;;;6135650;23;19916;-85
2023/04/12 02:15:46;;;;;;;;;;;;;;;;;;6135419;23;19920;-86
2023/04/12 02:18:15;;;;;;;;;;;;;;;;;;6135569;23;19917;-86
2023/04/12 02:20:42;;;;;;;;;;;;;;;;;;6135344;23;20335;-86
2023/04/12 02:23:08;;;;;;;;;;;;;;;;;;6135534;23;19927;-86
2023/04/12 02:25:34;;;;;;;;;;;;;;;;;;6135442;23;19920;-85
2023/04/12 02:28:00;;;;;;;;;;;;;;;;;;6135242;23;19916;-87
2023/04/12 02:30:26;;;;;;;;;;;;;;;;;;6135162;23;19921;-87
2023/04/12 02:32:52;;;;;;;;;;;;;;;;;;6134865;23;19916;-85
2023/04/12 02:35:18;;;;;;;;;;;;;;;;;;6135839;23;19976;-85
2023/04/12 02:37:48;;;;;;;;;;;;;;;;;;6135516;23;19916;-87
2023/04/12 02:40:17;;;;;;;;;;;;;;;;;;6159496;23;19916;-85
2023/04/12 02:42:43;;;;;;;;;;;;;;;;;;6135269;23;19955;-86
2023/04/12 02:45:09;;;;;;;;;;;;;;;;;;6136907;23;19916;-85
2023/04/12 02:47:35;;;;;;;;;;;;;;;;;;6136919;23;20232;-85
2023/04/12 02:50:01;;;;;;;;;;;;;;;;;;6161798;23;19924;-86
2023/04/12 02:52:28;;;;;;;;;;;;;;;;;;6137080;23;19920;-86
2023/04/12 02:54:54;;;;;;;;;;;;;;;;;;6161430;23;19916;-85
2023/04/12 02:57:22;;;;;;;;;;;;;;;;;;6137040;23;19923;-85
2023/04/12 02:59:48;;;;;;;;;;;;;;;;;;6137095;23;19967;-86
2023/04/12 03:02:14;;;;;;;;;;;;;;;;;;6136793;23;20286;-85
2023/04/12 03:04:40;;;;;;;;;;;;;;;;;;6162086;23;19923;-86
2023/04/12 03:07:06;;;;;;;;;;;;;;;;;;6137209;23;19916;-86
2023/04/12 03:09:32;;;;;;;;;;;;;;;;;;6136938;23;19923;-86
2023/04/12 03:11:57;;;;;;;;;;;;;;;;;;6161202;23;20335;-86
2023/04/12 03:14:23;;;;;;;;;;;;;;;;;;6136764;23;19923;-85
2023/04/12 03:16:50;;;;;;;;;;;;;;;;;;6136480;23;19991;-84
2023/04/12 03:19:16;;;;;;;;;;;;;;;;;;6136912;23;19917;-87
2023/04/12 03:21:42;;;;;;;;;;;;;;;;;;6136037;23;19927;-87
2023/04/12 03:24:08;;;;;;;;;;;;;;;;;;6136820;23;19943;-86
2023/04/12 03:26:34;;;;;;;;;;;;;;;;;;6137091;23;19939;-86
2023/04/12 03:29:00;;;;;;;;;;;;;;;;;;6136815;23;19920;-84
2023/04/12 03:31:26;;;;;;;;;;;;;;;;;;6136428;23;20181;-85
2023/04/12 03:33:52;;;;;;;;;;;;;;;;;;6136689;23;20260;-85
2023/04/12 03:36:20;;;;;;;;;;;;;;;;;;6136418;23;19917;-85
2023/04/12 03:38:46;;;;;;;;;;;;;;;;;;6136567;23;19920;-82
2023/04/12 03:41:12;;;;;;;;;;;;;;;;;;6136210;23;19916;-85
2023/04/12 03:43:38;;;;;;;;;;;;;;;;;;6137167;23;19916;-85
2023/04/12 03:46:04;;;;;;;;;;;;;;;;;;6136742;23;20003;-86
2023/04/12 03:48:29;;;;;;;;;;;;;;;;;;6136807;23;19916;-85
2023/04/12 03:50:58;;;;;;;;;;;;;;;;;;6136984;23;20331;-84
2023/04/12 03:53:24;;;;;;;;;;;;;;;;;;6136363;23;19923;-85
2023/04/12 03:55:50;;;;;;;;;;;;;;;;;;6136238;23;19947;-85
2023/04/12 03:58:17;;;;;;;;;;;;;;;;;;6135982;23;19960;-86
2023/04/12 04:00:43;;;;;;;;;;;;;;;;;;6135861;23;19917;-87
2023/04/12 04:03:09;;;;;;;;;;;;;;;;;;6135441;23;19927;-86
2023/04/12 04:05:35;;;;;;;;;;;;;;;;;;6135956;23;19920;-85
2023/04/12 04:08:01;;;;;;;;;;;;;;;;;;6135705;23;19923;-85
2023/04/12 04:10:27;;;;;;;;;;;;;;;;;;6135651;23;20351;-86
2023/04/12 04:12:53;;;;;;;;;;;;;;;;;;6135566;23;19927;-86
2023/04/12 04:15:19;;;;;;;;;;;;;;;;;;6135499;23;20331;-85
2023/04/12 04:17:47;;;;;;;;;;;;;;;;;;6135652;23;19916;-86
2023/04/12 04:20:13;;;;;;;;;;;;;;;;;;6136074;23;19924;-86
2023/04/12 04:22:38;;;;;;;;;;;;;;;;;;6135867;23;19920;-85
2023/04/12 04:25:04;;;;;;;;;;;;;;;;;;6135195;23;19922;-83
2023/04/12 04:27:33;;;;;;;;;;;;;;;;;;6135346;23;19972;-85
2023/04/12 04:30:01;;;;;;;;;;;;;;;;;;6135077;23;20364;-85
2023/04/12 04:32:27;;;;;;;;;;;;;;;;;;6159876;23;19923;-84
2023/04/12 04:34:53;;;;;;;;;;;;;;;;;;6159884;23;19916;-84
2023/04/12 04:37:20;;;;;;;;;;;;;;;;;;6135765;23;20239;-85
2023/04/12 04:39:46;;;;;;;;;;;;;;;;;;6134874;23;19980;-85
2023/04/12 04:42:12;;;;;;;;;;;;;;;;;;6134747;23;20094;-85
2023/04/12 04:44:37;;;;;;;;;;;;;;;;;;6134715;23;19916;-86
2023/04/12 04:47:03;;;;;;;;;;;;;;;;;;6134684;23;19923;-85
2023/04/12 04:49:29;;;;;;;;;;;;;;;;;;6134902;23;19966;-84
2023/04/12 04:51:55;;;;;;;;;;;;;;;;;;6134800;23;19916;-84
2023/04/12 04:54:21;;;;;;;;;;;;;;;;;;6134469;23;19916;-86
2023/04/12 04:56:47;;;;;;;;;;;;;;;;;;6135205;23;19920;-86
2023/04/12 04:59:13;;;;;;;;;;;;;;;;;;6135660;23;20343;-83
2023/04/12 05:01:39;;;;;;;;;;;;;;;;;;6135762;23;19943;-85
2023/04/12 05:04:05;;;;;;;;;;;;;;;;;;6135485;23;19916;-86
2023/04/12 05:06:31;;;;;;;;;;;;;;;;;;6134725;23;19923;-86
2023/04/12 05:08:57;;;;;;;;;;;;;;;;;;6159111;23;19916;-86
2023/04/12 05:11:24;;;;;;;;;;;;;;;;;;6158842;23;19916;-84
2023/04/12 05:13:50;;;;;;;;;;;;;;;;;;6134455;23;19952;-86
2023/04/12 05:16:16;;;;;;;;;;;;;;;;;;6134744;23;19943;-86
2023/04/12 05:18:42;;;;;;;;;;;;;;;;;;6134703;23;19916;-85
2023/04/12 05:21:08;;;;;;;;;;;;;;;;;;6134349;23;20145;-85
2023/04/12 05:23:34;;;;;;;;;;;;;;;;;;6134678;23;19924;-85
2023/04/12 05:26:00;;;;;;;;;;;;;;;;;;6134910;23;19938;-86
2023/04/12 05:28:26;;;;;;;;;;;;;;;;;;6134869;23;20004;-87
2023/04/12 05:30:52;;;;;;;;;;;;;;;;;;6134582;23;19917;-85
2023/04/12 05:33:18;;;;;;;;;;;;;;;;;;6134893;23;19939;-86
2023/04/12 05:35:44;;;;;;;;;;;;;;;;;;6135034;23;19917;-86
2023/04/12 05:38:10;;;;;;;;;;;;;;;;;;6134987;23;19921;-86
2023/04/12 05:40:36;;;;;;;;;;;;;;;;;;6134565;23;19916;-85
2023/04/12 05:43:02;;;;;;;;;;;;;;;;;;6134851;23;19943;-86
2023/04/12 05:45:28;;;;;;;;;;;;;;;;;;6134976;23;19971;-85
2023/04/12 05:47:54;;;;;;;;;;;;;;;;;;6134904;23;20251;-85
2023/04/12 05:50:21;;;;;;;;;;;;;;;;;;6162709;23;19952;-89
2023/04/12 05:52:50;;;;;;;;;;;;;;;;;;6140102;23;19920;-89
2023/04/12 05:55:17;;;;;;;;;;;;;;;;;;6139383;23;20185;-89
2023/04/12 05:57:43;;;;;;;;;;;;;;;;;;6163520;23;19916;-89
2023/04/12 06:00:12;;;;;;;;;;;;;;;;;;6136691;23;19948;-88
2023/04/12 06:02:38;;;;;;;;;;;;;;;;;;6135094;23;19920;-88
2023/04/12 06:05:04;;;;;;;;;;;;;;;;;;6161256;23;20231;-88
2023/04/12 06:07:30;;;;;;;;;;;;;;;;;;6136213;23;20253;-90
2023/04/12 06:09:56;;;;;;;;;;;;;;;;;;6135467;23;19992;-88
2023/04/12 06:12:22;;;;;;;;;;;;;;;;;;6135349;23;19981;-89
2023/04/12 06:14:48;;;;;;;;;;;;;;;;;;6137554;23;19987;-88
2023/04/12 06:17:14;;;;;;;;;;;;;;;;;;6137053;23;19916;-87
2023/04/12 06:19:40;;;;;;;;;;;;;;;;;;6163444;23;19920;-89
2023/04/12 06:22:06;;;;;;;;;;;;;;;;;;6136820;23;19920;-89
2023/04/12 06:24:32;;;;;;;;;;;;;;;;;;6137987;23;19939;-90
2023/04/12 06:26:57;;;;;;;;;;;;;;;;;;6138709;23;19994;-89
2023/04/12 06:29:23;;;;;;;;;;;;;;;;;;6137493;23;19995;-89
2023/04/12 06:31:49;;;;;;;;;;;;;;;;;;6135728;23;20325;-90
2023/04/12 06:34:15;;;;;;;;;;;;;;;;;;6136287;23;19995;-89
2023/04/12 06:36:42;;;;;;;;;;;;;;;;;;6136195;23;20334;-89
2023/04/12 06:39:08;;;;;;;;;;;;;;;;;;6160944;23;19916;-92
2023/04/12 06:41:34;;;;;;;;;;;;;;;;;;6135976;23;19924;-89
2023/04/12 06:44:00;;;;;;;;;;;;;;;;;;6136805;23;20302;-90
2023/04/12 06:46:27;;;;;;;;;;;;;;;;;;6136212;23;19916;-89
2023/04/12 06:48:53;;;;;;;;;;;;;;;;;;6136896;23;20255;-89
2023/04/12 06:51:19;;;;;;;;;;;;;;;;;;6160914;23;19916;-93
2023/04/12 06:53:44;;;;;;;;;;;;;;;;;;6140470;23;19924;-94
2023/04/12 06:56:10;;;;;;;;;;;;;;;;;;6139366;23;19923;-93
2023/04/12 06:58:36;;;;;;;;;;;;;;;;;;6140127;23;19924;-87
2023/04/12 07:01:02;;;;;;;;;;;;;;;;;;6136598;23;19948;-89
2023/04/12 07:03:31;;;;;;;;;;;;;;;;;;6136126;23;19931;-88
2023/04/12 07:05:58;;;;;;;;;;;;;;;;;;6136475;23;19917;-88
2023/04/12 07:08:25;;;;;;;;;;;;;;;;;;6136372;23;19916;-89
2023/04/12 07:10:51;;;;;;;;;;;;;;;;;;6135945;23;19916;-88
2023/04/12 07:13:18;;;;;;;;;;;;;;;;;;6136112;23;19990;-88
2023/04/12 07:15:45;;;;;;;;;;;;;;;;;;6136074;23;19916;-88
2023/04/12 07:18:11;;;;;;;;;;;;;;;;;;6137143;23;20319;-88
2023/04/12 07:20:37;;;;;;;;;;;;;;;;;;6162155;23;19920;-91
2023/04/12 07:23:03;;;;;;;;;;;;;;;;;;6137830;23;19927;-91
2023/04/12 07:25:28;;;;;;;;;;;;;;;;;;6137897;23;20401;-90
2023/04/12 07:27:54;;;;;;;;;;;;;;;;;;6137470;23;19917;-88
2023/04/12 07:30:20;;;;;;;;;;;;;;;;;;6135743;23;20278;-88
2023/04/12 07:32:47;;;;;;;;;;;;;;;;;;6135698;23;19916;-88
2023/04/12 07:35:13;;;;;;;;;;;;;;;;;;6136468;23;19923;-90
2023/04/12 07:37:39;;;;;;;;;;;;;;;;;;6137338;23;19916;-90
2023/04/12 07:40:05;;;;;;;;;;;;;;;;;;6137726;23;19916;-89
2023/04/12 07:42:31;;;;;;;;;;;;;;;;;;6137812;23;19999;-89
2023/04/12 07:44:57;;;;;;;;;;;;;;;;;;6136830;23;19970;-89
2023/04/12 07:47:22;;;;;;;;;;;;;;;;;;6138204;23;19916;-87
2023/04/12 07:49:48;;;;;;;;;;;;;;;;;;6136862;23;19991;-87
2023/04/12 07:52:14;;;;;;;;;;;;;;;;;;6137120;23;19916;-87
2023/04/12 07:54:41;;;;;;;;;;;;;;;;;;6133593;23;19927;-87
2023/04/12 07:57:08;;;;;;;;;;;;;;;;;;6135963;23;19920;-86
2023/04/12 07:59:56;;;;;;;;;;;;;;;;;;6139270;23;19916;-88
2023/04/12 08:02:24;;;;;;;;;;;;;;;;;;6160548;23;19920;-88
2023/04/12 08:04:50;;;;;;;;;;;;;;;;;;6136940;23;20406;-84
2023/04/12 08:07:18;;;;;;;;;;;;;;;;;;6139549;23;19916;-89
2023/04/12 08:09:44;;;;;;;;;;;;;;;;;;6161138;23;19951;-87
2023/04/12 08:12:10;;;;;;;;;;;;;;;;;;6136356;23;19975;-89
2023/04/12 08:14:36;;;;;;;;;;;;;;;;;;6161172;23;19966;-89
2023/04/12 08:17:02;;;;;;;;;;;;;;;;;;6137598;23;19962;-88
2023/04/12 08:19:31;;;;;;;;;;;;;;;;;;6138045;23;19916;-89
2023/04/12 08:21:57;;;;;;;;;;;;;;;;;;6162177;23;20339;-89
2023/04/12 08:24:23;;;;;;;;;;;;;;;;;;6139947;23;19923;-88
2023/04/12 08:26:48;;;;;;;;;;;;;;;;;;6142077;23;19920;-89
2023/04/12 08:29:15;;;;;;;;;;;;;;;;;;6140456;23;19974;-90
2023/04/12 08:31:40;;;;;;;;;;;;;;;;;;6141521;23;19916;-88
2023/04/12 08:34:06;;;;;;;;;;;;;;;;;;6140692;23;19916;-90
2023/04/12 08:36:38;;;;;;;;;;;;;;;;;;6142097;23;20236;-91
2023/04/12 08:39:08;;;;;;;;;;;;;;;;;;6141776;23;19917;-90
2023/04/12 08:41:39;;;;;;;;;;;;;;;;;;6140416;23;19964;-91
2023/04/12 08:44:30;;;;;;;;;;;;;;;;;;;;;
2023/04/12 08:47:07;;;;;;;;;;;;;;;;;;6165413;23;19991;-91
2023/04/12 08:49:56;;;;;;;;;;;;;;;;;;;;;
2023/04/12 08:52:34;;;;;;;;;;;;;;;;;;6144033;23;19920;-89
2023/04/12 08:55:00;;;;;;;;;;;;;;;;;;6138577;23;19927;-86
2023/04/12 08:57:26;;;;;;;;;;;;;;;;;;6139613;23;19916;-87
2023/04/12 08:59:52;;;;;;;;;;;;;;;;;;6137501;23;19939;-88
2023/04/12 09:02:18;;;;;;;;;;;;;;;;;;6139316;23;19986;-90
2023/04/12 09:04:44;;;;;;;;;;;;;;;;;;6140555;23;19951;-93
2023/04/12 09:07:10;;;;;;;;;;;;;;;;;;6136722;23;19916;-89
2023/04/12 09:09:36;;;;;;;;;;;;;;;;;;6160852;23;20294;-90
2023/04/12 09:12:02;;;;;;;;;;;;;;;;;;6136086;23;19916;-88
2023/04/12 09:14:28;;;;;;;;;;;;;;;;;;6135369;23;19916;-89
2023/04/12 09:16:54;;;;;;;;;;;;;;;;;;6135655;23;19924;-88
2023/04/12 09:19:20;;;;;;;;;;;;;;;;;;6159903;23;19916;-89
2023/04/12 09:21:46;;;;;;;;;;;;;;;;;;6136008;23;20322;-88
2023/04/12 09:24:12;;;;;;;;;;;;;;;;;;6160139;23;19916;-88
2023/04/12 09:26:38;;;;;;;;;;;;;;;;;;6136719;23;19916;-88
2023/04/12 09:29:04;;;;;;;;;;;;;;;;;;6139161;23;20228;-90
2023/04/12 09:31:30;;;;;;;;;;;;;;;;;;6139660;23;19996;-89
2023/04/12 09:33:56;;;;;;;;;;;;;;;;;;6165181;23;19916;-88
2023/04/12 09:36:22;;;;;;;;;;;;;;;;;;6139585;23;19916;-89
2023/04/12 09:38:48;;;;;;;;;;;;;;;;;;6138923;23;19951;-88
2023/04/12 09:41:14;;;;;;;;;;;;;;;;;;6139946;23;19916;-88
2023/04/12 09:43:40;;;;;;;;;;;;;;;;;;6138946;23;19925;-89
2023/04/12 09:46:06;;;;;;;;;;;;;;;;;;6136412;23;19923;-91
2023/04/12 09:48:32;;;;;;;;;;;;;;;;;;6135345;23;19958;-87
2023/04/12 09:51:01;;;;;;;;;;;;;;;;;;6135598;23;19923;-88
2023/04/12 09:53:27;;;;;;;;;;;;;;;;;;6131202;23;20004;-85
2023/04/12 09:55:53;;;;;;;;;;;;;;;;;;6133768;23;19923;-88
2023/04/12 09:58:20;;;;;;;;;;;;;;;;;;6157127;23;19920;-88
2023/04/12 10:00:47;;;;;;;;;;;;;;;;;;6133450;23;19923;-87
2023/04/12 10:03:13;;;;;;;;;;;;;;;;;;6133485;23;19924;-87
2023/04/12 10:05:40;;;;;;;;;;;;;;;;;;6133580;23;19927;-87
2023/04/12 10:08:05;;;;;;;;;;;;;;;;;;6134419;23;19916;-88
2023/04/12 10:10:31;;;;;;;;;;;;;;;;;;6134731;23;20361;-89
2023/04/12 10:12:57;;;;;;;;;;;;;;;;;;6134699;23;19924;-89
2023/04/12 10:15:24;;;;;;;;;;;;;;;;;;6160836;23;19916;-89
2023/04/12 10:17:50;;;;;;;;;;;;;;;;;;6136421;23;19923;-87
2023/04/12 10:20:16;;;;;;;;;;;;;;;;;;6136739;23;19991;-87
2023/04/12 10:22:42;;;;;;;;;;;;;;;;;;6136625;23;19944;-88
2023/04/12 10:25:08;;;;;;;;;;;;;;;;;;6135918;23;19916;-87
2023/04/12 10:27:34;;;;;;;;;;;;;;;;;;6160664;23;19975;-88
2023/04/12 10:30:00;;;;;;;;;;;;;;;;;;6136010;23;20231;-88
2023/04/12 10:32:26;;;;;;;;;;;;;;;;;;6136225;23;19916;-89
2023/04/12 10:34:52;;;;;;;;;;;;;;;;;;6136351;23;19916;-88
2023/04/12 10:37:18;;;;;;;;;;;;;;;;;;6136043;23;19999;-87
2023/04/12 10:39:46;;;;;;;;;;;;;;;;;;6135922;23;19917;-88
2023/04/12 10:42:11;;;;;;;;;;;;;;;;;;6136881;23;20242;-87
2023/04/12 10:44:37;;;;;;;;;;;;;;;;;;6136828;23;20175;-89
2023/04/12 10:47:03;;;;;;;;;;;;;;;;;;6136584;23;19916;-88
2023/04/12 10:49:29;;;;;;;;;;;;;;;;;;6136075;23;19923;-89
2023/04/12 10:51:55;;;;;;;;;;;;;;;;;;6136926;23;20334;-89
2023/04/12 10:54:21;;;;;;;;;;;;;;;;;;6136589;23;20305;-88
2023/04/12 10:56:48;;;;;;;;;;;;;;;;;;6136756;23;19920;-89
2023/04/12 10:59:14;;;;;;;;;;;;;;;;;;6161075;23;20303;-89
2023/04/12 11:01:39;;;;;;;;;;;;;;;;;;6137466;23;19916;-88
2023/04/12 11:04:05;;;;;;;;;;;;;;;;;;6138076;23;20066;-87
2023/04/12 11:06:31;;;;;;;;;;;;;;;;;;6139300;23;19943;-90
2023/04/12 11:08:57;;;;;;;;;;;;;;;;;;6139855;23;19920;-89
2023/04/12 11:11:23;;;;;;;;;;;;;;;;;;6163698;23;19916;-87
2023/04/12 11:13:49;;;;;;;;;;;;;;;;;;6140228;23;19916;-88
2023/04/12 11:16:15;;;;;;;;;;;;;;;;;;6163571;23;19923;-88
2023/04/12 11:18:41;;;;;;;;;;;;;;;;;;6139333;23;19923;-88
2023/04/12 11:21:10;;;;;;;;;;;;;;;;;;6139492;23;19932;-89
2023/04/12 11:23:36;;;;;;;;;;;;;;;;;;6165330;23;20255;-89
2023/04/12 11:26:02;;;;;;;;;;;;;;;;;;6140963;23;19916;-89
2023/04/12 11:28:28;;;;;;;;;;;;;;;;;;6141256;23;19917;-89
2023/04/12 11:30:54;;;;;;;;;;;;;;;;;;6141818;23;20002;-87
2023/04/12 11:33:20;;;;;;;;;;;;;;;;;;6166606;23;19916;-88
2023/04/12 11:35:46;;;;;;;;;;;;;;;;;;6141947;23;20402;-88
2023/04/12 11:38:12;;;;;;;;;;;;;;;;;;6141045;23;19916;-91
2023/04/12 11:40:38;;;;;;;;;;;;;;;;;;6144614;23;19926;-89
2023/04/12 11:43:04;;;;;;;;;;;;;;;;;;6139106;23;20255;-89
2023/04/12 11:45:30;;;;;;;;;;;;;;;;;;6141701;23;20342;-89
2023/04/12 11:47:56;;;;;;;;;;;;;;;;;;6138789;23;19916;-90
2023/04/12 11:50:22;;;;;;;;;;;;;;;;;;6139830;23;19923;-89
2023/04/12 11:52:48;;;;;;;;;;;;;;;;;;6139769;23;19916;-88
2023/04/12 11:55:14;;;;;;;;;;;;;;;;;;6137275;23;19939;-85
2023/04/12 11:57:40;;;;;;;;;;;;;;;;;;6139230;23;19916;-89
2023/04/12 12:00:06;;;;;;;;;;;;;;;;;;6140958;23;19987;-88
2023/04/12 12:02:32;;;;;;;;;;;;;;;;;;6139460;23;19967;-87
2023/04/12 12:04:58;;;;;;;;;;;;;;;;;;6143091;23;19940;-89
2023/04/12 12:07:24;;;;;;;;;;;;;;;;;;6167045;23;19916;-89
2023/04/12 12:09:50;;;;;;;;;;;;;;;;;;6145022;23;19917;-91
2023/04/12 12:12:16;;;;;;;;;;;;;;;;;;6140564;23;19938;-89
2023/04/12 12:14:42;;;;;;;;;;;;;;;;;;6144971;23;19916;-89
2023/04/12 12:17:09;;;;;;;;;;;;;;;;;;6141892;23;19916;-90
2023/04/12 12:19:35;;;;;;;;;;;;;;;;;;6145137;23;19923;-90
2023/04/12 12:22:01;;;;;;;;;;;;;;;;;;6141872;23;19932;-88
2023/04/12 12:24:27;;;;;;;;;;;;;;;;;;6142082;23;20080;-88
2023/04/12 12:26:53;;;;;;;;;;;;;;;;;;6140103;23;19924;-86
2023/04/12 12:29:19;;;;;;;;;;;;;;;;;;6169645;23;19922;-92
2023/04/12 12:31:45;;;;;;;;;;;;;;;;;;6149184;23;19917;-92
2023/04/12 12:34:11;;;;;;;;;;;;;;;;;;6143928;23;19916;-91
2023/04/12 12:36:37;;;;;;;;;;;;;;;;;;6140150;23;19927;-93
2023/04/12 12:39:06;;;;;;;;;;;;;;;;;;6165151;23;19916;-88
2023/04/12 12:41:31;;;;;;;;;;;;;;;;;;6142583;23;20250;-88
2023/04/12 12:43:59;;;;;;;;;;;;;;;;;;6141545;23;22016;-90
2023/04/12 12:46:25;;;;;;;;;;;;;;;;;;6149602;23;19916;-92
2023/04/12 12:48:51;;;;;;;;;;;;;;;;;;6145249;23;19921;-90
2023/04/12 12:51:18;;;;;;;;;;;;;;;;;;6168760;23;19920;-90
2023/04/12 12:53:45;;;;;;;;;;;;;;;;;;6142737;23;19974;-93
2023/04/12 12:56:11;;;;;;;;;;;;;;;;;;6141885;23;19916;-87
2023/04/12 12:58:37;;;;;;;;;;;;;;;;;;6138047;23;19920;-87
2023/04/12 13:01:03;;;;;;;;;;;;;;;;;;6138016;23;19917;-86
2023/04/12 13:03:29;;;;;;;;;;;;;;;;;;6137790;23;19920;-87
2023/04/12 13:05:55;;;;;;;;;;;;;;;;;;6136630;23;20254;-87
2023/04/12 13:08:21;;;;;;;;;;;;;;;;;;6136921;23;19942;-87
2023/04/12 13:10:48;;;;;;;;;;;;;;;;;;6160766;23;19974;-87
2023/04/12 13:13:14;;;;;;;;;;;;;;;;;;6162505;23;19955;-87
2023/04/12 13:15:40;;;;;;;;;;;;;;;;;;6137515;23;19916;-87
2023/04/12 13:18:06;;;;;;;;;;;;;;;;;;6138629;23;20357;-88
2023/04/12 13:20:32;;;;;;;;;;;;;;;;;;6140344;23;19916;-90
2023/04/12 13:22:58;;;;;;;;;;;;;;;;;;6140821;23;19979;-89
2023/04/12 13:25:24;;;;;;;;;;;;;;;;;;6140241;23;19916;-87
2023/04/12 13:27:50;;;;;;;;;;;;;;;;;;6140293;23;20349;-89
2023/04/12 13:30:16;;;;;;;;;;;;;;;;;;6164536;23;19916;-89
2023/04/12 13:32:46;;;;;;;;;;;;;;;;;;6164574;23;19938;-88
2023/04/12 13:35:12;;;;;;;;;;;;;;;;;;6141036;23;19916;-89
2023/04/12 13:37:38;;;;;;;;;;;;;;;;;;6139545;23;19923;-87
2023/04/12 13:40:06;;;;;;;;;;;;;;;;;;6136836;23;19920;-87
2023/04/12 13:42:46;;;;;;;;;;;;;;;;;;6137657;23;19924;-87
2023/04/12 13:45:12;;;;;;;;;;;;;;;;;;6162137;23;19920;-88
2023/04/12 13:47:37;;;;;;;;;;;;;;;;;;6136822;23;19991;-87
2023/04/12 13:50:03;;;;;;;;;;;;;;;;;;6136287;23;19916;-87
2023/04/12 13:52:29;;;;;;;;;;;;;;;;;;6136967;23;19916;-86
2023/04/12 13:54:56;;;;;;;;;;;;;;;;;;6137082;23;19916;-87
2023/04/12 13:57:22;;;;;;;;;;;;;;;;;;6136704;23;19940;-86
2023/04/12 13:59:48;;;;;;;;;;;;;;;;;;6136177;23;19920;-85
2023/04/12 14:02:14;;;;;;;;;;;;;;;;;;6136192;23;20331;-85
2023/04/12 14:04:40;;;;;;;;;;;;;;;;;;6136596;23;19916;-85
2023/04/12 14:07:06;;;;;;;;;;;;;;;;;;6160908;23;20043;-85
2023/04/12 14:09:32;;;;;;;;;;;;;;;;;;6134071;23;20037;-86
2023/04/12 14:11:58;;;;;;;;;;;;;;;;;;6136349;23;19916;-85
2023/04/12 14:14:26;;;;;;;;;;;;;;;;;;6160395;23;20278;-86
2023/04/12 14:16:53;;;;;;;;;;;;;;;;;;6136350;23;20327;-85
2023/04/12 14:19:19;;;;;;;;;;;;;;;;;;6136163;23;19916;-84
2023/04/12 14:21:45;;;;;;;;;;;;;;;;;;6135886;23;19923;-86
2023/04/12 14:24:11;;;;;;;;;;;;;;;;;;6135863;23;19917;-85
2023/04/12 14:26:38;;;;;;;;;;;;;;;;;;6134678;23;20382;-83
2023/04/12 14:29:04;;;;;;;;;;;;;;;;;;6135365;23;19927;-83
2023/04/12 14:31:30;;;;;;;;;;;;;;;;;;6134475;23;19916;-84
2023/04/12 14:33:56;;;;;;;;;;;;;;;;;;6135354;23;19923;-84
2023/04/12 14:36:22;;;;;;;;;;;;;;;;;;6160277;23;20357;-87
2023/04/12 14:38:48;;;;;;;;;;;;;;;;;;6137414;23;20326;-84
2023/04/12 14:41:15;;;;;;;;;;;;;;;;;;6137288;23;19917;-83
2023/04/12 14:43:41;;;;;;;;;;;;;;;;;;6137495;23;19920;-83
2023/04/12 14:46:19;;;;;;;;;;;;;;;;;;6135852;23;20761;-84
2023/04/12 14:48:45;;;;;;;;;;;;;;;;;;6136953;23;19916;-83
2023/04/12 14:51:10;;;;;;;;;;;;;;;;;;6136375;23;19920;-86
2023/04/12 14:53:37;;;;;;;;;;;;;;;;;;6186313;23;19923;-84
2023/04/12 14:56:03;;;;;;;;;;;;;;;;;;6136522;23;19920;-83
2023/04/12 14:58:29;;;;;;;;;;;;;;;;;;6136595;23;20338;-82
2023/04/12 15:00:55;;;;;;;;;;;;;;;;;;6159895;23;19924;-84
2023/04/12 15:03:21;;;;;;;;;;;;;;;;;;6135018;23;19920;-84
2023/04/12 15:05:47;;;;;;;;;;;;;;;;;;6161647;23;19921;-83
2023/04/12 15:08:13;;;;;;;;;;;;;;;;;;6136311;23;20304;-84
2023/04/12 15:10:39;;;;;;;;;;;;;;;;;;6135477;23;19981;-84
2023/04/12 15:13:04;;;;;;;;;;;;;;;;;;6137064;23;20357;-82
2023/04/12 15:15:30;;;;;;;;;;;;;;;;;;6136937;23;19916;-83
2023/04/12 15:17:56;;;;;;;;;;;;;;;;;;6160515;23;20350;-84
2023/04/12 15:20:22;;;;;;;;;;;;;;;;;;6136985;23;19967;-85
2023/04/12 15:22:50;;;;;;;;;;;;;;;;;;6135336;23;19924;-82
2023/04/12 15:25:16;;;;;;;;;;;;;;;;;;6135438;23;19924;-82
2023/04/12 15:27:43;;;;;;;;;;;;;;;;;;6136462;23;19916;-84
2023/04/12 15:30:11;;;;;;;;;;;;;;;;;;6136580;23;19947;-83
2023/04/12 15:32:40;;;;;;;;;;;;;;;;;;6137163;23;20136;-84
2023/04/12 15:35:06;;;;;;;;;;;;;;;;;;6161519;23;19927;-83
2023/04/12 15:37:33;;;;;;;;;;;;;;;;;;6136933;23;19916;-82
2023/04/12 15:40:00;;;;;;;;;;;;;;;;;;6136209;23;19974;-84
2023/04/12 15:42:25;;;;;;;;;;;;;;;;;;6136596;23;19928;-85
2023/04/12 15:44:51;;;;;;;;;;;;;;;;;;6160976;23;19916;-84
2023/04/12 15:47:17;;;;;;;;;;;;;;;;;;6136596;23;20358;-83
2023/04/12 15:49:43;;;;;;;;;;;;;;;;;;6134336;23;19920;-85
2023/04/12 15:52:09;;;;;;;;;;;;;;;;;;6136353;23;20297;-85
2023/04/12 15:54:40;;;;;;;;;;;;;;;;;;6136433;23;19916;-84
2023/04/12 15:57:09;;;;;;;;;;;;;;;;;;6136860;23;19916;-84
2023/04/12 15:59:36;;;;;;;;;;;;;;;;;;6136159;23;19917;-82
2023/04/12 16:02:05;;;;;;;;;;;;;;;;;;6161313;23;19956;-82
2023/04/12 16:04:31;;;;;;;;;;;;;;;;;;6137394;23;19988;-83
2023/04/12 16:07:00;;;;;;;;;;;;;;;;;;6161235;23;19920;-84
2023/04/12 16:09:26;;;;;;;;;;;;;;;;;;6136304;23;19917;-85
2023/04/12 16:14:33;;;;;;;;;;;;;;;;;;6160970;23;19916;-84
2023/04/12 16:17:00;;;;;;;;;;;;;;;;;;6135680;23;19916;-84
2023/04/12 16:19:27;;;;;;;;;;;;;;;;;;6136009;23;19995;-83
2023/04/12 16:21:53;;;;;;;;;;;;;;;;;;6160911;23;20348;-83
2023/04/12 16:24:36;;;;;;;;;;;;;;;;;;6136218;23;19967;-83
2023/04/12 16:27:11;;;;;;;;;;;;;;;;;;6136497;23;19971;-84
2023/04/12 16:29:39;;;;;;;;;;;;;;;;;;6161681;23;19920;-82
2023/04/12 16:32:06;;;;;;;;;;;;;;;;;;6135934;23;19916;-83
2023/04/12 16:34:36;;;;;;;;;;;;;;;;;;6136567;23;19923;-81
2023/04/12 16:37:02;;;;;;;;;;;;;;;;;;6136600;23;20045;-84
2023/04/12 16:39:28;;;;;;;;;;;;;;;;;;6136181;23;19920;-83
2023/04/12 16:41:54;;;;;;;;;;;;;;;;;;6160413;23;19942;-83
2023/04/12 16:44:20;;;;;;;;;;;;;;;;;;6160782;23;19939;-83